Time;durP1;ratioP1;P1;durP2;ratioP2;P2;SDS_P1;SDS_P2;PMS_P1;PMS_P2;Temp;Humidity;BMP_temperature;BMP_pressure;BME280_temperature;BME280_humidity;BME280_pressure;Samples;Min_cycle;Max_cycle;Signal;HPM_P1;HPM_P2
2023/06/07 00:01:52;;;;;;;1999.90;999.90;;;18.40;99.90;;;;;;5107583;27;20461;-72
2023/06/07 00:04:19;;;;;;;1999.90;999.90;;;18.40;99.90;;;;;;5103433;28;20448;-73
2023/06/07 00:06:46;;;;;;;1999.90;999.90;;;18.50;99.90;;;;;;5097654;28;20974;-74
2023/06/07 00:09:14;;;;;;;1999.90;999.90;;;18.40;99.90;;;;;;5093163;27;21009;-73
2023/06/07 00:11:42;;;;;;;1999.90;999.90;;;18.50;99.90;;;;;;5106357;27;20501;-73
2023/06/07 00:14:09;;;;;;;1999.90;999.90;;;18.50;99.90;;;;;;5100641;27;20464;-72
2023/06/07 00:16:35;;;;;;;1999.90;999.90;;;18.20;99.90;;;;;;5109528;27;20500;-73
2023/06/07 00:19:03;;;;;;;1999.90;999.90;;;17.80;99.90;;;;;;5109966;27;20425;-72
2023/06/07 00:21:30;;;;;;;1999.90;999.90;;;17.50;99.90;;;;;;5101812;27;20428;-74
2023/06/07 00:23:56;;;;;;;1999.90;999.90;;;17.60;99.90;;;;;;5109980;27;20426;-72
2023/06/07 00:26:24;;;;;;;1999.90;999.90;;;17.80;99.90;;;;;;5105163;27;20461;-72
2023/06/07 00:28:51;;;;;;;1999.90;999.90;;;18.00;99.90;;;;;;5103618;27;20980;-73
2023/06/07 00:31:18;;;;;;;1999.90;999.90;;;18.10;99.90;;;;;;5105391;27;20432;-72
2023/06/07 00:33:44;;;;;;;1999.90;999.90;;;18.10;99.90;;;;;;5110183;27;20875;-73
2023/06/07 00:36:11;;;;;;;1999.90;999.90;;;18.40;99.90;;;;;;5107926;27;20432;-72
2023/06/07 00:38:38;;;;;;;1999.90;999.90;;;18.40;99.90;;;;;;5103390;27;20436;-73
2023/06/07 00:41:04;;;;;;;1999.90;999.90;;;18.40;99.90;;;;;;5106393;27;20844;-73
2023/06/07 00:43:32;;;;;;;1999.90;999.90;;;18.30;99.90;;;;;;5109963;27;20428;-73
2023/06/07 00:45:59;;;;;;;1999.90;999.90;;;18.00;99.90;;;;;;5101781;28;20428;-72
2023/06/07 00:48:27;;;;;;;1999.90;999.90;;;18.10;99.90;;;;;;5106584;28;20428;-72
2023/06/07 00:50:54;;;;;;;1999.90;999.90;;;18.10;99.90;;;;;;5101828;27;20902;-73
2023/06/07 00:53:21;;;;;;;1999.90;999.90;;;18.10;99.90;;;;;;5097299;27;20550;-72
2023/06/07 00:55:48;;;;;;;1999.90;999.90;;;18.10;99.90;;;;;;5101126;27;20430;-73
2023/06/07 00:58:15;;;;;;;1999.90;999.90;;;18.20;99.90;;;;;;5109022;28;21096;-73
2023/06/07 01:00:43;;;;;;;1999.90;999.90;;;18.30;99.90;;;;;;5107812;28;20423;-73
2023/06/07 01:03:11;;;;;;;1999.90;999.90;;;18.20;99.90;;;;;;5108120;28;20424;-73
2023/06/07 01:05:37;;;;;;;1999.90;999.90;;;18.40;99.90;;;;;;5108988;28;20506;-73
2023/06/07 01:08:04;;;;;;;1999.90;999.90;;;18.10;99.90;;;;;;5102545;28;20428;-71
2023/06/07 01:10:31;;;;;;;1999.90;999.90;;;17.80;99.90;;;;;;5110325;28;20424;-73
2023/06/07 01:13:03;;;;;;;1999.90;999.90;;;18.00;99.90;;;;;;5107665;28;20422;-73
2023/06/07 01:15:30;;;;;;;1999.90;999.90;;;17.90;99.90;;;;;;5101175;28;20430;-73
2023/06/07 01:17:59;;;;;;;1999.90;999.90;;;17.70;99.90;;;;;;5093534;28;20426;-72
2023/06/07 01:20:27;;;;;;;1999.90;999.90;;;17.60;99.90;;;;;;5104626;28;20473;-73
2023/06/07 01:22:57;;;;;;;1999.90;999.90;;;17.70;99.90;;;;;;5103938;28;20832;-73
2023/06/07 01:25:26;;;;;;;1999.90;999.90;;;17.80;99.90;;;;;;5101195;28;20428;-73
2023/06/07 01:27:53;;;;;;;1999.90;999.90;;;17.60;99.90;;;;;;5108896;28;20448;-73
2023/06/07 01:30:22;;;;;;;1999.90;999.90;;;17.70;99.90;;;;;;5102404;28;20436;-72
2023/06/07 01:32:51;;;;;;;1999.90;999.90;;;17.90;99.90;;;;;;5101096;28;20420;-72
2023/06/07 01:35:18;;;;;;;1999.90;999.90;;;17.90;99.90;;;;;;5106317;28;20483;-73
2023/06/07 01:37:47;;;;;;;1999.90;999.90;;;18.00;99.90;;;;;;5101968;28;20923;-74
2023/06/07 01:40:15;;;;;;;1999.90;999.90;;;18.20;99.90;;;;;;5102680;28;20428;-73
2023/06/07 01:42:45;;;;;;;1999.90;999.90;;;18.20;99.90;;;;;;5106300;28;20915;-73
2023/06/07 01:45:12;;;;;;;1999.90;999.90;;;18.20;99.90;;;;;;5108487;28;20813;-73
2023/06/07 01:47:39;;;;;;;1999.90;999.90;;;18.00;99.90;;;;;;5108162;28;20481;-73
2023/06/07 01:50:08;;;;;;;1999.90;999.90;;;17.90;99.90;;;;;;5102666;28;20437;-73
2023/06/07 01:52:34;;;;;;;1999.90;999.90;;;17.80;99.90;;;;;;5100855;28;20979;-73
2023/06/07 01:55:02;;;;;;;1999.90;999.90;;;17.60;99.90;;;;;;5097781;27;20976;-73
2023/06/07 01:57:38;;;;;;;1999.90;999.90;;;17.60;99.90;;;;;;5110452;27;20427;-73
2023/06/07 02:00:18;;;;;;;1999.90;999.90;;;17.80;99.90;;;;;;5106812;27;20473;-71
2023/06/07 02:02:54;;;;;;;1999.90;999.90;;;17.80;99.90;;;;;;5108198;27;20428;-73
2023/06/07 02:05:26;;;;;;;1999.90;999.90;;;18.00;99.90;;;;;;5105282;28;20911;-72
2023/06/07 02:07:55;;;;;;;1999.90;999.90;;;17.90;99.90;;;;;;5100744;27;21208;-73
2023/06/07 02:10:24;;;;;;;1999.90;999.90;;;17.90;99.90;;;;;;5097987;27;20518;-73
2023/06/07 02:12:53;;;;;;;1999.90;999.90;;;17.90;99.90;;;;;;5111506;27;20420;-73
2023/06/07 02:15:21;;;;;;;1999.90;999.90;;;17.90;99.90;;;;;;5112752;28;20458;-73
2023/06/07 02:17:49;;;;;;;1999.90;999.90;;;17.90;99.90;;;;;;5104898;27;20473;-71
2023/06/07 02:20:17;;;;;;;1999.90;999.90;;;17.90;99.90;;;;;;5099384;27;20437;-72
2023/06/07 02:22:44;;;;;;;1999.90;999.90;;;18.00;99.90;;;;;;5102432;27;20426;-73
2023/06/07 02:25:11;;;;;;;1999.90;999.90;;;18.00;99.90;;;;;;5104205;27;20584;-73
2023/06/07 02:27:37;;;;;;;1999.90;999.90;;;18.10;99.90;;;;;;5112376;27;20474;-72
2023/06/07 02:30:05;;;;;;;1999.90;999.90;;;18.00;99.90;;;;;;5106352;27;20430;-73
2023/06/07 02:32:35;;;;;;;1999.90;999.90;;;18.00;99.90;;;;;;5105400;27;20428;-73
2023/06/07 02:35:01;;;;;;;1999.90;999.90;;;17.60;99.90;;;;;;5098913;27;20499;-73
2023/06/07 02:37:29;;;;;;;1999.90;999.90;;;17.40;99.90;;;;;;5096222;28;20434;-73
2023/06/07 02:39:56;;;;;;;1999.90;999.90;;;17.60;99.90;;;;;;5101989;27;20436;-72
2023/06/07 02:42:23;;;;;;;1999.90;999.90;;;17.70;99.90;;;;;;5110857;27;20859;-73
2023/06/07 02:44:49;;;;;;;1999.90;999.90;;;17.80;99.90;;;;;;5110044;27;20431;-73
2023/06/07 02:47:16;;;;;;;1999.90;999.90;;;17.90;99.90;;;;;;5100599;27;20437;-71
2023/06/07 02:49:44;;;;;;;1999.90;999.90;;;18.10;99.90;;;;;;5098194;27;20433;-72
2023/06/07 02:52:11;;;;;;;1999.90;999.90;;;18.20;99.90;;;;;;5097557;27;20424;-73
2023/06/07 02:54:39;;;;;;;1999.90;999.90;;;18.20;99.90;;;;;;5111156;27;21013;-72
2023/06/07 02:57:07;;;;;;;1999.90;999.90;;;18.30;99.90;;;;;;5107494;27;20432;-72
2023/06/07 02:59:34;;;;;;;1999.90;999.90;;;18.20;99.90;;;;;;5104265;27;20428;-73
2023/06/07 03:02:00;;;;;;;1999.90;999.90;;;18.30;99.90;;;;;;5106021;27;20567;-71
2023/06/07 03:04:28;;;;;;;1999.90;999.90;;;18.30;99.90;;;;;;5111925;28;20432;-73
2023/06/07 03:06:56;;;;;;;1999.90;999.90;;;18.30;99.90;;;;;;5101926;27;20506;-72
2023/06/07 03:09:23;;;;;;;1999.90;999.90;;;18.40;99.90;;;;;;5109900;27;20524;-72
2023/06/07 03:11:49;;;;;;;1999.90;999.90;;;18.20;99.90;;;;;;5111629;27;20492;-72
2023/06/07 03:14:17;;;;;;;1999.90;999.90;;;18.10;99.90;;;;;;5101699;27;20519;-73
2023/06/07 03:16:44;;;;;;;1999.90;999.90;;;18.20;99.90;;;;;;5099912;27;20501;-70
2023/06/07 03:19:11;;;;;;;1999.90;999.90;;;18.20;99.90;;;;;;5093339;27;20430;-74
2023/06/07 03:21:38;;;;;;;1999.90;999.90;;;18.20;99.90;;;;;;5109225;27;20420;-73
2023/06/07 03:24:07;;;;;;;1999.90;999.90;;;18.10;99.90;;;;;;5109894;27;20428;-73
2023/06/07 03:26:34;;;;;;;1999.90;999.90;;;18.10;99.90;;;;;;5107377;27;20436;-73
2023/06/07 03:29:01;;;;;;;1999.90;999.90;;;18.00;99.90;;;;;;5097670;27;20502;-73
2023/06/07 03:31:28;;;;;;;1999.90;999.90;;;17.60;99.90;;;;;;5096562;27;20923;-73
2023/06/07 03:33:55;;;;;;;1999.90;999.90;;;17.50;99.90;;;;;;5096379;27;20507;-72
2023/06/07 03:36:24;;;;;;;1999.90;999.90;;;17.50;99.90;;;;;;5110852;27;21159;-73
2023/06/07 03:38:52;;;;;;;1999.90;999.90;;;17.50;99.90;;;;;;5110467;27;20463;-73
2023/06/07 03:41:20;;;;;;;1999.90;999.90;;;17.60;99.90;;;;;;5103289;27;20986;-74
2023/06/07 03:43:47;;;;;;;1999.90;999.90;;;17.80;99.90;;;;;;5099811;27;20473;-73
2023/06/07 03:46:13;;;;;;;1999.90;999.90;;;17.80;99.90;;;;;;5094342;27;20437;-73
2023/06/07 03:48:40;;;;;;;1999.90;999.90;;;17.90;99.90;;;;;;5107387;27;20836;-73
2023/06/07 03:51:07;;;;;;;1999.90;999.90;;;17.80;99.90;;;;;;5105703;27;20465;-74
2023/06/07 03:53:33;;;;;;;1999.90;999.90;;;17.80;99.90;;;;;;5110901;27;20948;-73
2023/06/07 03:56:00;;;;;;;1999.90;999.90;;;17.90;99.90;;;;;;5103312;27;20432;-72
2023/06/07 03:58:28;;;;;;;1999.90;999.90;;;17.90;99.90;;;;;;5095019;27;20930;-73
2023/06/07 04:00:55;;;;;;;1999.90;999.90;;;18.00;99.90;;;;;;5102381;27;20432;-73
2023/06/07 04:03:24;;;;;;;1999.90;999.90;;;18.00;99.90;;;;;;5111590;27;20428;-73
2023/06/07 04:05:51;;;;;;;1999.90;999.90;;;18.10;99.90;;;;;;5106511;27;20427;-73
2023/06/07 04:08:17;;;;;;;1999.90;999.90;;;18.20;99.90;;;;;;5108413;27;20498;-73
2023/06/07 04:10:44;;;;;;;1999.90;999.90;;;18.10;99.90;;;;;;5109813;27;20444;-74
2023/06/07 04:13:10;;;;;;;1999.90;999.90;;;18.30;99.90;;;;;;5093623;27;20973;-73
2023/06/07 04:15:38;;;;;;;1999.90;999.90;;;18.30;99.90;;;;;;5098599;27;20840;-73
2023/06/07 04:18:05;;;;;;;1999.90;999.90;;;18.30;99.90;;;;;;5104546;27;20842;-72
2023/06/07 04:20:32;;;;;;;1999.90;999.90;;;18.30;99.90;;;;;;5104000;27;20432;-73
2023/06/07 04:22:58;;;;;;;1999.90;999.90;;;18.40;99.90;;;;;;5105997;28;20424;-73
2023/06/07 04:25:33;;;;;;;1999.90;999.90;;;18.30;99.90;;;;;;5103981;28;20487;-72
2023/06/07 04:28:00;;;;;;;1999.90;999.90;;;18.20;99.90;;;;;;5096742;27;20422;-72
2023/06/07 04:30:34;;;;;;;1999.90;999.90;;;18.20;99.90;;;;;;5108332;27;20519;-72
2023/06/07 04:33:03;;;;;;;1999.90;999.90;;;18.10;99.90;;;;;;5102859;27;20424;-72
2023/06/07 04:35:31;;;;;;;1999.90;999.90;;;18.00;99.90;;;;;;5100462;27;20437;-73
2023/06/07 04:38:01;;;;;;;1999.90;999.90;;;17.90;99.90;;;;;;5108362;27;20424;-73
2023/06/07 04:40:28;;;;;;;1999.90;999.90;;;18.10;99.90;;;;;;5104227;27;20436;-73
2023/06/07 04:42:57;;;;;;;1999.90;999.90;;;18.10;99.90;;;;;;5106395;27;20424;-71
2023/06/07 04:45:31;;;;;;;1999.90;999.90;;;18.40;99.90;;;;;;5106403;27;20433;-73
2023/06/07 04:47:58;;;;;;;1999.90;999.90;;;18.50;99.90;;;;;;5109321;27;20428;-72
2023/06/07 04:50:28;;;;;;;1999.90;999.90;;;18.50;99.90;;;;;;5098914;27;20426;-72
2023/06/07 04:53:00;;;;;;;1999.90;999.90;;;18.50;99.90;;;;;;5094293;27;20417;-72
2023/06/07 04:55:29;;;;;;;1999.90;999.90;;;18.40;99.90;;;;;;5104930;27;20431;-72
2023/06/07 04:57:55;;;;;;;1999.90;999.90;;;18.60;99.90;;;;;;5105597;28;20423;-71
2023/06/07 05:00:23;;;;;;;1999.90;999.90;;;18.50;99.90;;;;;;5107278;27;20440;-72
2023/06/07 05:02:49;;;;;;;1999.90;999.90;;;18.50;99.90;;;;;;5108777;28;20482;-72
2023/06/07 05:05:16;;;;;;;1999.90;999.90;;;18.50;99.90;;;;;;5094405;27;20438;-72
2023/06/07 05:07:44;;;;;;;1999.90;999.90;;;18.50;99.90;;;;;;5099963;28;20423;-72
2023/06/07 05:10:11;;;;;;;1999.90;999.90;;;18.40;99.90;;;;;;5105745;27;20487;-72
2023/06/07 05:12:38;;;;;;;1999.90;999.90;;;18.40;99.90;;;;;;5104576;28;20500;-74
2023/06/07 05:15:06;;;;;;;1999.90;999.90;;;18.70;99.90;;;;;;5105226;28;20424;-72
2023/06/07 05:17:34;;;;;;;1999.90;999.90;;;18.70;99.90;;;;;;5103056;28;20491;-72
2023/06/07 05:20:00;;;;;;;1999.90;999.90;;;18.30;99.90;;;;;;5094303;28;20429;-73
2023/06/07 05:22:27;;;;;;;1999.90;999.90;;;18.10;99.90;;;;;;5109317;28;20508;-71
2023/06/07 05:24:55;;;;;;;1999.90;999.90;;;18.30;99.90;;;;;;5104982;28;20428;-72
2023/06/07 05:27:22;;;;;;;1999.90;999.90;;;18.60;99.90;;;;;;5101702;27;20479;-73
2023/06/07 05:29:48;;;;;;;1999.90;999.90;;;18.80;99.90;;;;;;5108655;27;20483;-72
2023/06/07 05:32:15;;;;;;;1999.90;999.90;;;18.90;99.90;;;;;;5101864;27;20479;-72
2023/06/07 05:34:45;;;;;;;1999.90;999.90;;;18.80;99.90;;;;;;5101927;27;20481;-72
2023/06/07 05:37:12;;;;;;;1999.90;999.90;;;18.90;99.90;;;;;;5109581;27;20453;-72
2023/06/07 05:39:40;;;;;;;1999.90;999.90;;;19.10;99.90;;;;;;5106364;28;20817;-72
2023/06/07 05:42:08;;;;;;;1999.90;999.90;;;19.40;99.90;;;;;;5101044;28;20445;-72
2023/06/07 05:44:35;;;;;;;1999.90;999.90;;;19.50;99.90;;;;;;5113114;27;20483;-71
2023/06/07 05:47:02;;;;;;;1999.90;999.90;;;19.30;99.90;;;;;;5110526;27;20565;-72
2023/06/07 05:49:28;;;;;;;1999.90;999.90;;;19.40;99.90;;;;;;5107892;27;20413;-72
2023/06/07 05:51:55;;;;;;;1999.90;999.90;;;19.50;99.90;;;;;;5111115;28;20894;-72
2023/06/07 05:54:22;;;;;;;1999.90;999.90;;;19.50;99.90;;;;;;5114588;28;20633;-71
2023/06/07 05:56:48;;;;;;;1999.90;999.90;;;19.30;99.90;;;;;;5113922;27;20432;-72
2023/06/07 06:01:48;;;;;;;1999.90;999.90;;;19.70;99.90;;;;;;5071580;28;20423;-73
2023/06/07 06:04:16;;;;;;;1999.90;999.90;;;19.70;99.90;;;;;;5066853;28;20990;-74
2023/06/07 06:06:42;;;;;;;1999.90;999.90;;;19.50;99.90;;;;;;5071239;28;20564;-73
2023/06/07 06:09:10;;;;;;;1999.90;999.90;;;19.40;99.90;;;;;;5060789;28;20439;-73
2023/06/07 06:11:36;;;;;;;1999.90;999.90;;;19.70;99.90;;;;;;5050456;28;20455;-73
2023/06/07 06:14:03;;;;;;;1999.90;999.90;;;20.00;99.90;;;;;;5052124;28;20432;-72
2023/06/07 06:16:30;;;;;;;1999.90;999.90;;;20.20;99.90;;;;;;5043970;28;20435;-74
2023/06/07 06:18:58;;;;;;;1999.90;999.90;;;20.30;99.90;;;;;;5045176;28;20942;-73
2023/06/07 06:21:25;;;;;;;1999.90;999.90;;;20.70;99.90;;;;;;5040309;28;20437;-73
2023/06/07 06:23:51;;;;;;;1999.90;999.90;;;20.60;99.90;;;;;;5051934;28;20567;-73
2023/06/07 06:26:18;;;;;;;1999.90;999.90;;;20.80;99.90;;;;;;5050136;28;20547;-71
2023/06/07 06:28:45;;;;;;;1999.90;999.90;;;20.90;99.90;;;;;;5051529;28;20483;-73
2023/06/07 06:31:11;;;;;;;1999.90;999.90;;;20.60;99.90;;;;;;5047378;28;20830;-73
2023/06/07 06:33:38;;;;;;;1999.90;999.90;;;20.60;99.90;;;;;;5045568;28;21011;-72
2023/06/07 06:36:07;;;;;;;1999.90;999.90;;;20.30;99.90;;;;;;5037122;28;20438;-72
2023/06/07 06:38:33;;;;;;;1999.90;999.90;;;20.40;99.90;;;;;;5050499;28;20429;-73
2023/06/07 06:41:00;;;;;;;1999.90;999.90;;;20.60;99.90;;;;;;5048210;28;20437;-73
2023/06/07 06:43:27;;;;;;;1999.90;999.90;;;20.50;99.90;;;;;;5046716;28;20486;-75
2023/06/07 06:45:53;;;;;;;1999.90;999.90;;;20.60;99.90;;;;;;5046834;28;20441;-71
2023/06/07 06:48:20;;;;;;;1999.90;999.90;;;20.60;99.90;;;;;;5040159;28;20434;-70
2023/06/07 06:50:49;;;;;;;1999.90;999.90;;;20.50;99.90;;;;;;5047395;28;20467;-73
2023/06/07 06:53:17;;;;;;;1999.90;999.90;;;20.50;99.90;;;;;;5047473;28;20492;-75
2023/06/07 06:55:43;;;;;;;1999.90;999.90;;;20.80;99.90;;;;;;5050580;28;20444;-72
2023/06/07 06:58:10;;;;;;;1999.90;999.90;;;21.00;99.90;;;;;;5048570;28;20450;-72
2023/06/07 07:00:39;;;;;;;1999.90;999.90;;;21.20;99.90;;;;;;5050698;28;20471;-69
2023/06/07 07:03:05;;;;;;;1999.90;999.90;;;21.20;99.90;;;;;;5048776;28;20834;-73
2023/06/07 07:05:32;;;;;;;1999.90;999.90;;;21.40;99.90;;;;;;5044711;28;20467;-74
2023/06/07 07:07:59;;;;;;;1999.90;999.90;;;21.60;99.90;;;;;;5034716;28;20450;-73
2023/06/07 07:10:27;;;;;;;1999.90;999.90;;;21.50;99.90;;;;;;5043581;28;20790;-73
2023/06/07 07:12:54;;;;;;;1999.90;999.90;;;21.40;99.90;;;;;;5064096;28;20420;-69
2023/06/07 07:15:21;;;;;;;1999.90;999.90;;;21.80;99.90;;;;;;5073012;28;20411;-73
2023/06/07 07:17:49;;;;;;;1999.90;999.90;;;21.90;99.90;;;;;;5072437;28;20419;-72
2023/06/07 07:20:17;;;;;;;1999.90;999.90;;;22.00;99.90;;;;;;5060241;28;20493;-73
2023/06/07 07:22:46;;;;;;;1999.90;999.90;;;22.00;99.90;;;;;;5058417;28;20471;-69
2023/06/07 07:25:13;;;;;;;1999.90;999.90;;;22.00;99.90;;;;;;5065994;28;20435;-70
2023/06/07 07:27:41;;;;;;;1999.90;999.90;;;21.80;99.90;;;;;;5067330;28;20419;-69
2023/06/07 07:30:10;;;;;;;1999.90;999.90;;;21.70;99.90;;;;;;5071359;28;20461;-74
2023/06/07 07:32:36;;;;;;;1999.90;999.90;;;21.70;99.90;;;;;;5071969;28;20886;-72
2023/06/07 07:35:03;;;;;;;1999.90;999.90;;;21.90;99.90;;;;;;5072339;28;20837;-73
2023/06/07 07:37:30;;;;;;;1999.90;999.90;;;22.10;99.90;;;;;;5062361;28;20433;-74
2023/06/07 07:39:57;;;;;;;1999.90;999.90;;;22.20;99.90;;;;;;5068605;28;20422;-73
2023/06/07 07:42:23;;;;;;;1999.90;999.90;;;22.30;99.90;;;;;;5071680;28;20415;-72
2023/06/07 07:44:51;;;;;;;1999.90;999.90;;;22.60;99.90;;;;;;5071918;28;20890;-71
2023/06/07 07:47:18;;;;;;;1999.90;999.90;;;22.70;99.90;;;;;;5071724;28;20416;-73
2023/06/07 07:49:44;;;;;;;1999.90;999.90;;;23.00;99.90;;;;;;5067149;28;20490;-71
2023/06/07 07:52:12;;;;;;;1999.90;999.90;;;23.10;99.90;;;;;;5061185;28;20478;-74
2023/06/07 07:54:39;;;;;;;1999.90;999.90;;;23.10;99.90;;;;;;5066114;28;20435;-74
2023/06/07 07:57:06;;;;;;;1999.90;999.90;;;23.00;99.90;;;;;;5063413;28;20475;-73
2023/06/07 07:59:33;;;;;;;1999.90;999.90;;;22.50;99.90;;;;;;5071168;28;20416;-73
2023/06/07 08:02:01;;;;;;;1999.90;999.90;;;23.10;99.90;;;;;;5071397;28;20411;-73
2023/06/07 08:04:27;;;;;;;1999.90;999.90;;;23.20;99.90;;;;;;5071869;28;20824;-73
2023/06/07 08:06:54;;;;;;;1999.90;999.90;;;23.30;99.90;;;;;;5066091;28;20477;-75
2023/06/07 08:09:21;;;;;;;1999.90;999.90;;;23.40;99.90;;;;;;5054137;28;20426;-73
2023/06/07 08:11:47;;;;;;;1999.90;999.90;;;23.70;99.90;;;;;;5071259;28;20465;-73
2023/06/07 08:14:14;;;;;;;1999.90;999.90;;;23.90;99.90;;;;;;5071286;28;20424;-73
2023/06/07 08:16:41;;;;;;;1999.90;999.90;;;24.00;99.90;;;;;;5071333;28;20415;-73
2023/06/07 08:19:10;;;;;;;1999.90;999.90;;;23.80;99.90;;;;;;5070646;28;20461;-71
2023/06/07 08:21:37;;;;;;;1999.90;999.90;;;23.60;99.90;;;;;;5058898;28;20919;-73
2023/06/07 08:24:05;;;;;;;1999.90;999.90;;;23.70;99.90;;;;;;5060531;28;20761;-70
2023/06/07 08:26:31;;;;;;;1999.90;999.90;;;23.60;99.90;;;;;;5071216;28;20446;-73
2023/06/07 08:29:00;;;;;;;1999.90;999.90;;;23.40;99.90;;;;;;5069823;28;21400;-74
2023/06/07 08:31:28;;;;;;;1999.90;999.90;;;23.50;99.90;;;;;;5070919;28;20416;-73
2023/06/07 08:33:55;;;;;;;1999.90;999.90;;;23.10;99.90;;;;;;5071291;28;20430;-73
2023/06/07 08:36:23;;;;;;;1999.90;999.90;;;23.20;99.90;;;;;;5058993;28;20590;-73
2023/06/07 08:38:50;;;;;;;1999.90;999.90;;;23.50;99.90;;;;;;5066189;28;20465;-73
2023/06/07 08:41:17;;;;;;;1999.90;999.90;;;23.60;99.90;;;;;;5070324;28;20407;-73
2023/06/07 08:43:44;;;;;;;1999.90;999.90;;;23.60;99.90;;;;;;5070658;28;20944;-73
2023/06/07 08:46:12;;;;;;;1999.90;999.90;;;23.90;99.90;;;;;;5057982;28;21262;-74
2023/06/07 08:48:40;;;;;;;1999.90;999.90;;;24.00;99.90;;;;;;5061993;28;20930;-70
2023/06/07 08:51:08;;;;;;;1999.90;999.90;;;23.70;99.80;;;;;;5065596;28;20983;-73
2023/06/07 08:53:46;;;;;;;1999.90;999.90;;;23.60;99.90;;;;;;5057215;28;20479;-73
2023/06/07 08:56:14;;;;;;;1999.90;999.90;;;23.40;99.90;;;;;;5069116;28;20473;-73
2023/06/07 08:58:41;;;;;;;1999.90;999.90;;;23.40;99.90;;;;;;5070198;28;20885;-73
2023/06/07 09:01:08;;;;;;;1999.90;999.90;;;23.00;99.00;;;;;;5070297;28;20416;-71
2023/06/07 09:03:35;;;;;;;1999.90;999.90;;;22.90;97.40;;;;;;5058696;28;20525;-75
2023/06/07 09:06:02;;;;;;;1999.90;999.90;;;22.90;97.30;;;;;;5067825;28;20415;-73
2023/06/07 09:08:30;;;;;;;1999.90;999.90;;;23.10;96.10;;;;;;5070371;28;20408;-71
2023/06/07 09:10:58;;;;;;;1999.90;999.90;;;23.40;96.20;;;;;;5065492;28;20441;-74
2023/06/07 09:13:25;;;;;;;1999.90;999.90;;;23.50;95.60;;;;;;5037851;28;20489;-73
2023/06/07 09:15:53;;;;;;;1999.90;999.90;;;23.70;96.00;;;;;;5040627;28;20839;-73
2023/06/07 09:18:20;;;;;;;1999.90;999.90;;;23.40;95.70;;;;;;5058122;28;20419;-69
2023/06/07 09:20:47;;;;;;;1999.90;999.90;;;23.90;95.60;;;;;;5049888;28;20417;-73
2023/06/07 09:23:14;;;;;;;1999.90;999.90;;;24.40;95.30;;;;;;5047774;28;20773;-73
2023/06/07 09:25:44;;;;;;;1999.90;999.90;;;24.40;94.20;;;;;;5043744;28;20771;-73
2023/06/07 09:28:13;;;;;;;1999.90;999.90;;;24.70;93.50;;;;;;5054566;28;20445;-74
2023/06/07 09:31:01;;;;;;;1999.90;999.90;;;24.70;94.20;;;;;;5040792;28;20539;-72
2023/06/07 09:33:29;;;;;;;1999.90;999.90;;;25.30;93.50;;;;;;5041917;28;20429;-73
2023/06/07 09:36:03;;;;;;;1999.90;999.90;;;25.30;93.10;;;;;;5048372;28;20434;-73
2023/06/07 09:38:30;;;;;;;1999.90;999.90;;;25.40;93.00;;;;;;5042778;28;20446;-73
2023/06/07 09:40:59;;;;;;;1999.90;999.90;;;25.60;93.30;;;;;;5042258;28;20961;-73
2023/06/07 09:43:27;;;;;;;1999.90;999.90;;;25.60;93.90;;;;;;5046368;28;20425;-74
2023/06/07 09:45:54;;;;;;;1999.90;999.90;;;25.50;93.40;;;;;;5041354;28;20434;-73
2023/06/07 09:48:21;;;;;;;1999.90;999.90;;;25.50;93.70;;;;;;5048888;28;20410;-73
2023/06/07 09:50:55;;;;;;;1999.90;999.90;;;25.70;93.10;;;;;;5049791;28;20421;-75
2023/06/07 09:53:22;;;;;;;1999.90;999.90;;;25.60;92.80;;;;;;5050277;28;20417;-73
2023/06/07 09:55:49;;;;;;;1999.90;999.90;;;25.50;92.60;;;;;;5049937;28;20413;-74
2023/06/07 09:58:20;;;;;;;1999.90;999.90;;;25.60;93.20;;;;;;5050291;28;20433;-69
2023/06/07 10:00:48;;;;;;;1999.90;999.90;;;26.20;92.40;;;;;;5064007;28;20431;-74
2023/06/07 10:03:16;;;;;;;1999.90;999.90;;;26.10;92.50;;;;;;5051587;28;20961;-74
2023/06/07 10:05:42;;;;;;;1999.90;999.90;;;26.20;92.40;;;;;;5050167;28;20417;-73
2023/06/07 10:08:10;;;;;;;1999.90;999.90;;;26.20;92.10;;;;;;5049663;28;21173;-73
2023/06/07 10:10:40;;;;;;;1999.90;999.90;;;25.90;92.30;;;;;;5048905;28;20471;-72
2023/06/07 10:13:11;;;;;;;1999.90;999.90;;;25.80;92.90;;;;;;5058122;28;20413;-72
2023/06/07 10:15:44;;;;;;;1999.90;999.90;;;25.10;93.00;;;;;;5071941;28;20404;-73
2023/06/07 10:18:17;;;;;;;1999.90;999.90;;;24.90;93.70;;;;;;5073497;28;20508;-73
2023/06/07 10:20:50;;;;;;;1999.90;999.90;;;24.70;94.10;;;;;;5073484;28;20468;-73
2023/06/07 10:23:26;;;;;;;1999.90;999.90;;;24.90;93.20;;;;;;5073479;28;20415;-72
2023/06/07 10:26:00;;;;;;;1999.90;999.90;;;24.80;94.40;;;;;;5067576;28;20431;-73
2023/06/07 10:28:32;;;;;;;1999.90;999.90;;;24.50;94.50;;;;;;5064869;28;20459;-73
2023/06/07 10:31:05;;;;;;;1999.90;999.90;;;24.50;93.90;;;;;;5064601;28;20431;-73
2023/06/07 10:33:34;;;;;;;1999.90;999.90;;;24.80;93.70;;;;;;5060187;28;20429;-70
2023/06/07 10:36:01;;;;;;;1999.90;999.90;;;25.00;92.60;;;;;;5069339;28;20420;-73
2023/06/07 10:38:29;;;;;;;1999.90;999.90;;;24.90;92.90;;;;;;5070545;28;20445;-73
2023/06/07 10:40:58;;;;;;;1999.90;999.90;;;24.70;93.10;;;;;;5061308;28;20447;-72
2023/06/07 10:43:28;;;;;;;1999.90;999.90;;;24.70;92.80;;;;;;5072450;28;20465;-78
2023/06/07 10:46:19;;;;;;;1999.90;999.90;;;24.80;93.00;;;;;;5045207;28;20506;-73
2023/06/07 10:48:47;;;;;;;1999.90;999.90;;;25.10;92.90;;;;;;5040539;28;20425;-73
2023/06/07 10:51:15;;;;;;;1999.90;999.90;;;25.10;92.80;;;;;;5050080;28;21146;-73
2023/06/07 10:53:59;;;;;;;1999.90;999.90;;;25.30;92.60;;;;;;5051214;28;20482;-73
2023/06/07 10:56:31;;;;;;;1999.90;999.90;;;25.30;92.30;;;;;;5063629;28;20411;-73
2023/06/07 10:58:59;;;;;;;1999.90;999.90;;;25.40;92.00;;;;;;5072359;28;20416;-73
2023/06/07 11:01:26;;;;;;;1999.90;999.90;;;25.50;91.60;;;;;;5072312;28;20778;-73
2023/06/07 11:03:54;;;;;;;1999.90;999.90;;;25.70;91.30;;;;;;5072300;28;20908;-73
2023/06/07 11:06:21;;;;;;;1999.90;999.90;;;25.80;91.20;;;;;;5072620;28;20422;-71
2023/06/07 11:08:49;;;;;;;1999.90;999.90;;;25.70;91.30;;;;;;5062849;28;20424;-73
2023/06/07 11:11:49;;;;;;;1999.90;999.90;;;25.40;91.20;;;;;;5063908;28;20447;-73
2023/06/07 11:14:16;;;;;;;1999.90;999.90;;;25.50;91.30;;;;;;5072570;28;20427;-73
2023/06/07 11:16:43;;;;;;;1999.90;999.90;;;25.50;91.60;;;;;;5072715;28;20411;-72
2023/06/07 11:19:16;;;;;;;1999.90;999.90;;;25.70;91.60;;;;;;5072163;28;20457;-73
2023/06/07 11:22:07;;;;;;;1999.90;999.90;;;25.50;91.50;;;;;;5068017;28;20496;-70
2023/06/07 11:24:37;;;;;;;1999.90;999.90;;;25.40;91.50;;;;;;5039820;28;20427;-73
2023/06/07 11:27:11;;;;;;;1999.90;999.90;;;25.80;91.80;;;;;;5064127;28;20495;-69
2023/06/07 11:29:38;;;;;;;1999.90;999.90;;;25.90;92.00;;;;;;5071959;28;20407;-73
2023/06/07 11:32:07;;;;;;;1999.90;999.90;;;26.00;92.00;;;;;;5072231;28;20847;-73
2023/06/07 11:34:35;;;;;;;1999.90;999.90;;;25.70;91.50;;;;;;5072164;28;21131;-73
2023/06/07 11:37:13;;;;;;;1999.90;999.90;;;25.90;91.60;;;;;;5072061;28;20416;-73
2023/06/07 11:39:40;;;;;;;1999.90;999.90;;;25.50;91.80;;;;;;5054358;28;20506;-69
2023/06/07 11:42:07;;;;;;;1999.90;999.90;;;25.30;92.30;;;;;;5060151;28;20475;-74
2023/06/07 11:44:35;;;;;;;1999.90;999.90;;;25.70;92.60;;;;;;5052079;28;20416;-73
2023/06/07 11:47:05;;;;;;;1999.90;999.90;;;25.60;91.30;;;;;;5052519;28;20422;-71
2023/06/07 11:49:32;;;;;;;1999.90;999.90;;;25.40;91.70;;;;;;5051665;28;20413;-74
2023/06/07 11:52:00;;;;;;;1999.90;999.90;;;25.90;92.20;;;;;;5049118;28;20467;-75
2023/06/07 11:54:27;;;;;;;1999.90;999.90;;;25.70;91.40;;;;;;5046838;28;20429;-74
2023/06/07 11:56:54;;;;;;;1999.90;999.90;;;26.00;91.50;;;;;;5045501;28;20414;-74
2023/06/07 11:59:22;;;;;;;1999.90;999.90;;;25.80;91.50;;;;;;5031479;28;20418;-71
2023/06/07 12:01:52;;;;;;;1999.90;999.90;;;26.10;91.60;;;;;;5067854;22;20466;-73
2023/06/07 12:04:19;;;;;;;1999.90;999.90;;;26.20;91.40;;;;;;5044655;28;20457;-73
2023/06/07 12:06:49;;;;;;;1999.90;999.90;;;26.70;91.10;;;;;;5050360;28;20433;-74